createdAt,value
2019-01-30T00:00:04.229Z,3.27
2019-01-30T00:02:30.874Z,3.27
2019-01-30T00:04:57.482Z,2.70
2019-01-30T00:07:23.732Z,3.00
2019-01-30T00:09:50.046Z,2.77
2019-01-30T00:12:16.405Z,3.07
2019-01-30T00:14:44.953Z,3.30
2019-01-30T00:17:12.034Z,3.03
2019-01-30T00:19:38.354Z,3.00
2019-01-30T00:22:04.981Z,2.83
2019-01-30T00:24:31.247Z,2.83
2019-01-30T00:26:59.217Z,2.97
2019-01-30T00:29:25.499Z,2.90
2019-01-30T00:31:52.142Z,2.70
2019-01-30T00:34:18.969Z,2.57
2019-01-30T00:36:45.642Z,2.80
2019-01-30T00:39:12.269Z,3.00
2019-01-30T00:41:38.594Z,2.47
2019-01-30T00:44:05.217Z,2.53
2019-01-30T00:46:31.841Z,2.97
2019-01-30T00:48:58.563Z,2.80
2019-01-30T00:51:25.189Z,2.80
2019-01-30T00:53:51.850Z,2.83
2019-01-30T00:56:18.487Z,2.83
2019-01-30T00:58:45.144Z,2.67
2019-01-30T01:01:11.511Z,2.40
2019-01-30T01:03:37.918Z,2.67
2019-01-30T01:06:04.362Z,2.93
2019-01-30T01:08:30.781Z,2.90
2019-01-30T01:10:57.138Z,2.67
2019-01-30T01:13:23.859Z,2.77
2019-01-30T01:15:51.019Z,3.10
2019-01-30T01:18:17.274Z,2.87
2019-01-30T01:20:43.945Z,2.93
2019-01-30T01:23:10.862Z,2.70
2019-01-30T01:25:37.521Z,2.73
2019-01-30T01:28:04.237Z,2.53
2019-01-30T01:30:30.566Z,2.40
2019-01-30T01:32:56.841Z,2.37
2019-01-30T01:35:23.304Z,2.40
2019-01-30T01:37:49.954Z,2.53
2019-01-30T01:40:16.669Z,2.70
2019-01-30T01:42:43.057Z,2.50
2019-01-30T01:45:11.598Z,2.10
2019-01-30T01:47:38.396Z,2.13
2019-01-30T01:50:06.814Z,2.47
2019-01-30T01:52:33.642Z,2.63
2019-01-30T01:55:00.282Z,2.37
2019-01-30T01:57:26.534Z,2.40
2019-01-30T01:59:52.798Z,2.37
2019-01-30T02:02:19.063Z,2.13
2019-01-30T02:04:45.357Z,2.10
2019-01-30T02:07:12.090Z,2.10
2019-01-30T02:09:38.759Z,2.50
2019-01-30T02:12:05.348Z,2.40
2019-01-30T02:14:31.907Z,2.47
2019-01-30T02:16:58.538Z,1.93
2019-01-30T02:19:24.809Z,2.30
2019-01-30T02:21:51.066Z,2.53
2019-01-30T02:24:17.673Z,2.10
2019-01-30T02:26:44.330Z,2.10
2019-01-30T02:29:11.319Z,2.10
2019-01-30T02:31:38.130Z,2.10
2019-01-30T02:34:04.801Z,1.77
2019-01-30T02:36:33.450Z,2.10
2019-01-30T02:38:59.941Z,2.20
2019-01-30T02:41:26.549Z,1.90
2019-01-30T02:43:53.204Z,2.03
2019-01-30T02:46:19.806Z,2.00
2019-01-30T02:48:46.457Z,1.90
2019-01-30T02:51:13.081Z,2.53
2019-01-30T02:53:39.404Z,2.60
2019-01-30T02:56:05.663Z,2.23
2019-01-30T02:58:32.407Z,2.90
2019-01-30T03:00:59.623Z,2.47
2019-01-30T03:03:26.373Z,2.30
2019-01-30T03:05:52.669Z,2.43
2019-01-30T03:08:19.034Z,2.13
2019-01-30T03:10:45.673Z,3.03
2019-01-30T03:13:12.313Z,2.40
2019-01-30T03:15:38.950Z,2.43
2019-01-30T03:18:05.215Z,2.30
2019-01-30T03:20:31.588Z,2.73
2019-01-30T03:22:57.861Z,2.60
2019-01-30T03:25:24.889Z,2.53
2019-01-30T03:27:51.386Z,2.80
2019-01-30T03:30:19.131Z,2.43
2019-01-30T03:32:45.664Z,2.50
2019-01-30T03:35:12.036Z,2.70
2019-01-30T03:37:38.641Z,2.23
2019-01-30T03:40:07.100Z,2.53
2019-01-30T03:42:33.351Z,2.77
2019-01-30T03:45:00.007Z,2.57
2019-01-30T03:47:26.633Z,2.30
2019-01-30T03:49:53.253Z,2.67
2019-01-30T03:52:19.874Z,2.57
2019-01-30T03:54:46.501Z,2.63
2019-01-30T03:57:13.160Z,2.63
2019-01-30T03:59:40.730Z,3.17
2019-01-30T04:02:07.479Z,2.97
2019-01-30T04:04:34.119Z,2.70
2019-01-30T04:07:00.826Z,2.97
2019-01-30T04:09:27.105Z,2.90
2019-01-30T04:11:53.765Z,2.70
2019-01-30T04:14:20.049Z,2.80
2019-01-30T04:16:46.662Z,2.50
2019-01-30T04:19:13.291Z,2.60
2019-01-30T04:21:39.918Z,2.57
2019-01-30T04:24:06.647Z,2.43
2019-01-30T04:26:33.286Z,2.30
2019-01-30T04:29:00.041Z,2.70
2019-01-30T04:31:37.552Z,2.73
2019-01-30T04:33:54.740Z,3.40
2019-01-30T04:36:21.349Z,2.40
2019-01-30T04:38:47.988Z,3.03
2019-01-30T04:41:14.273Z,2.43
2019-01-30T04:43:40.544Z,2.70
2019-01-30T04:46:07.107Z,2.77
2019-01-30T04:48:33.725Z,2.90
2019-01-30T04:50:59.992Z,2.93
2019-01-30T04:53:26.614Z,3.23
2019-01-30T04:55:53.262Z,3.20
2019-01-30T04:58:19.578Z,2.80
2019-01-30T05:00:46.195Z,2.60
2019-01-30T05:03:12.612Z,2.90
2019-01-30T05:05:38.854Z,2.70
2019-01-30T05:08:05.501Z,2.30
2019-01-30T05:10:32.118Z,2.77
2019-01-30T05:12:58.779Z,2.70
2019-01-30T05:15:25.495Z,2.90
2019-01-30T05:17:53.014Z,2.43
2019-01-30T05:20:19.739Z,2.97
2019-01-30T05:22:46.688Z,2.40
2019-01-30T05:25:14.158Z,2.60
2019-01-30T05:27:40.616Z,2.17
2019-01-30T05:30:09.163Z,3.03
2019-01-30T05:32:35.459Z,3.00
2019-01-30T05:35:02.032Z,2.67
2019-01-30T05:37:28.317Z,2.90
2019-01-30T05:39:54.961Z,3.00
2019-01-30T05:42:21.658Z,3.20
2019-01-30T05:44:48.284Z,2.90
2019-01-30T05:47:14.578Z,3.00
2019-01-30T05:49:41.199Z,3.10
2019-01-30T05:52:07.849Z,3.50
2019-01-30T05:54:34.111Z,3.20
2019-01-30T05:57:00.762Z,4.10
2019-01-30T05:59:27.394Z,3.43
2019-01-30T06:01:54.073Z,3.63
2019-01-30T06:04:20.756Z,3.40
2019-01-30T06:06:47.445Z,3.40
2019-01-30T06:09:14.102Z,3.50
2019-01-30T06:11:40.358Z,3.10
2019-01-30T06:14:07.025Z,3.97
2019-01-30T06:16:33.298Z,3.27
2019-01-30T06:18:59.956Z,3.20
2019-01-30T06:21:26.580Z,3.67
2019-01-30T06:23:52.889Z,4.03
2019-01-30T06:26:19.154Z,3.53
2019-01-30T06:28:45.825Z,3.10
2019-01-30T06:31:12.550Z,3.43
2019-01-30T06:33:39.481Z,3.43
2019-01-30T06:36:06.095Z,3.17
2019-01-30T06:38:32.725Z,3.67
2019-01-30T06:40:59.375Z,3.50
2019-01-30T06:43:25.645Z,3.40
2019-01-30T06:45:52.282Z,2.97
2019-01-30T06:48:18.900Z,3.00
2019-01-30T06:50:45.650Z,3.17
2019-01-30T06:53:12.279Z,3.27
2019-01-30T06:55:38.589Z,3.30
2019-01-30T06:58:04.865Z,2.93
2019-01-30T07:00:31.791Z,4.37
2019-01-30T07:02:58.513Z,3.90
2019-01-30T07:05:24.990Z,3.97
2019-01-30T07:07:51.626Z,4.10
2019-01-30T07:10:19.275Z,5.50
2019-01-30T07:12:45.945Z,5.40
2019-01-30T07:15:12.772Z,4.47
2019-01-30T07:17:39.046Z,3.70
2019-01-30T07:20:06.969Z,3.40
2019-01-30T07:25:18.720Z,3.73
2019-01-30T07:27:45.027Z,3.30
2019-01-30T07:30:20.981Z,3.33
2019-01-30T07:32:47.289Z,3.33
2019-01-30T07:35:13.793Z,3.67
2019-01-30T07:37:40.142Z,3.37
2019-01-30T07:40:08.597Z,3.90
2019-01-30T07:42:34.864Z,4.53
2019-01-30T07:45:01.476Z,4.60
2019-01-30T07:47:28.166Z,3.80
2019-01-30T07:49:54.762Z,5.43
2019-01-30T07:52:21.413Z,5.83
2019-01-30T07:54:48.046Z,4.50
2019-01-30T07:57:14.343Z,4.50
2019-01-30T07:59:40.958Z,5.95
2019-01-30T08:02:07.645Z,5.85
2019-01-30T08:04:34.267Z,5.13
2019-01-30T08:07:03.082Z,3.90
2019-01-30T08:09:29.047Z,3.70
2019-01-30T08:11:55.657Z,3.80
2019-01-30T08:14:22.556Z,3.83
2019-01-30T08:16:49.176Z,4.17
2019-01-30T08:19:15.479Z,4.07
2019-01-30T08:21:41.808Z,5.42
2019-01-30T08:24:08.800Z,4.80
2019-01-30T08:26:35.552Z,4.10
2019-01-30T08:29:02.299Z,4.23
2019-01-30T08:31:29.066Z,3.50
2019-01-30T08:33:55.733Z,4.05
2019-01-30T08:36:22.473Z,2.80
2019-01-30T08:38:49.226Z,3.60
2019-01-30T08:41:15.866Z,3.27
2019-01-30T08:43:42.473Z,2.90
2019-01-30T08:46:09.085Z,2.77
2019-01-30T08:48:35.717Z,2.33
2019-01-30T08:51:02.433Z,2.07
2019-01-30T08:53:29.073Z,1.77
2019-01-30T08:55:55.708Z,2.00
2019-01-30T08:58:21.995Z,2.23
2019-01-30T09:00:48.613Z,2.07
2019-01-30T09:03:15.305Z,1.80
2019-01-30T09:05:41.605Z,1.67
2019-01-30T09:08:08.908Z,1.80
2019-01-30T09:10:35.236Z,1.90
2019-01-30T09:13:01.528Z,1.80
2019-01-30T09:15:28.580Z,1.77
2019-01-30T09:17:54.961Z,1.27
2019-01-30T09:20:23.321Z,1.50
2019-01-30T09:22:49.813Z,1.77
2019-01-30T09:25:18.889Z,1.70
2019-01-30T09:27:45.535Z,1.50
2019-01-30T09:30:25.405Z,1.40
2019-01-30T09:32:51.889Z,0.97
2019-01-30T09:35:18.349Z,1.10
2019-01-30T09:37:44.662Z,0.83
2019-01-30T09:40:13.189Z,1.30
2019-01-30T09:42:39.862Z,1.10
2019-01-30T09:45:10.086Z,0.83
2019-01-30T09:47:36.321Z,1.10
2019-01-30T09:50:04.844Z,1.00
2019-01-30T09:52:31.134Z,0.90
2019-01-30T09:54:57.398Z,0.80
2019-01-30T09:57:23.793Z,0.97
2019-01-30T09:59:50.409Z,1.00
2019-01-30T10:02:17.048Z,0.80
2019-01-30T10:04:43.680Z,1.00
2019-01-30T10:07:10.331Z,0.90
2019-01-30T10:09:37.694Z,0.80
2019-01-30T10:12:04.513Z,0.83
2019-01-30T10:14:31.167Z,1.00
2019-01-30T10:16:57.486Z,0.80
2019-01-30T10:19:24.132Z,1.73
2019-01-30T10:21:51.024Z,1.17
2019-01-30T10:24:17.694Z,1.27
2019-01-30T10:26:44.025Z,0.80
2019-01-30T10:29:10.306Z,1.37
2019-01-30T10:31:36.952Z,1.17
2019-01-30T10:34:03.606Z,1.33
2019-01-30T10:36:30.213Z,0.80
2019-01-30T10:38:56.850Z,0.87
2019-01-30T10:41:23.504Z,0.80
2019-01-30T10:43:49.916Z,0.70
2019-01-30T10:46:16.678Z,0.80
2019-01-30T10:48:42.995Z,0.60
2019-01-30T10:51:09.683Z,0.50
2019-01-30T10:53:35.983Z,0.50
2019-01-30T10:56:03.054Z,0.50
2019-01-30T10:58:29.810Z,0.60
2019-01-30T11:00:56.544Z,0.63
2019-01-30T11:03:23.174Z,0.67
2019-01-30T11:05:49.638Z,0.43
2019-01-30T11:08:16.411Z,0.50
2019-01-30T11:10:42.723Z,0.60
2019-01-30T11:13:09.262Z,0.67
2019-01-30T11:15:35.938Z,0.80
2019-01-30T11:18:05.334Z,0.40
2019-01-30T11:20:33.637Z,0.50
2019-01-30T11:23:00.456Z,0.60
2019-01-30T11:25:41.785Z,0.50
2019-01-30T11:28:08.725Z,0.30
2019-01-30T11:30:35.181Z,0.47
2019-01-30T11:33:01.658Z,0.50
2019-01-30T11:35:28.332Z,0.40
2019-01-30T11:37:55.009Z,0.90
2019-01-30T11:40:22.106Z,0.60
2019-01-30T11:42:48.534Z,0.50
2019-01-30T11:45:23.714Z,0.60
2019-01-30T11:47:50.338Z,0.30
2019-01-30T11:50:16.853Z,0.20
2019-01-30T11:52:43.878Z,0.17
2019-01-30T11:55:11.834Z,0.10
2019-01-30T11:57:38.104Z,0.10
2019-01-30T12:00:06.640Z,0.27
2019-01-30T12:02:33.258Z,0.20
2019-01-30T12:04:59.896Z,0.20
2019-01-30T12:07:26.157Z,0.43
2019-01-30T12:09:52.809Z,0.20
2019-01-30T12:12:19.478Z,0.20
2019-01-30T12:14:46.412Z,0.20
2019-01-30T12:17:13.027Z,0.20
2019-01-30T12:19:39.694Z,0.20
2019-01-30T12:22:06.329Z,0.10
2019-01-30T12:24:32.983Z,0.30
2019-01-30T12:26:59.641Z,0.20
2019-01-30T12:29:26.265Z,0.30
2019-01-30T12:31:53.050Z,0.20
2019-01-30T12:34:28.173Z,0.30
2019-01-30T12:36:48.597Z,0.20
2019-01-30T12:39:15.218Z,0.30
2019-01-30T12:41:42.220Z,0.23
2019-01-30T12:44:08.657Z,0.30
2019-01-30T12:46:34.970Z,0.20
2019-01-30T12:49:01.637Z,0.20
2019-01-30T12:51:28.265Z,0.20
2019-01-30T12:53:54.549Z,0.27
2019-01-30T12:56:21.216Z,0.20
2019-01-30T12:58:47.491Z,0.30
2019-01-30T13:01:15.090Z,0.20
2019-01-30T13:03:41.358Z,0.20
2019-01-30T13:06:07.677Z,0.30
2019-01-30T13:08:34.312Z,0.20
2019-01-30T13:11:01.042Z,0.30
2019-01-30T13:13:27.786Z,0.20
2019-01-30T13:15:54.422Z,0.30
2019-01-30T13:18:21.162Z,0.30
2019-01-30T13:20:47.798Z,0.30
2019-01-30T13:23:14.556Z,0.17
2019-01-30T13:25:41.102Z,0.30
2019-01-30T13:28:07.884Z,0.20
2019-01-30T13:30:35.404Z,0.20
2019-01-30T13:33:02.957Z,0.40
2019-01-30T13:43:54.112Z,0.30
2019-01-30T13:46:21.266Z,0.40
2019-01-30T13:48:48.009Z,0.30
2019-01-30T13:51:15.452Z,0.40
2019-01-30T13:53:42.099Z,0.30
2019-01-30T13:56:09.319Z,0.30
2019-01-30T13:58:38.210Z,0.20
2019-01-30T14:01:04.938Z,0.50
2019-01-30T14:03:31.586Z,0.30
2019-01-30T14:05:57.918Z,0.30
2019-01-30T14:08:24.901Z,0.30
2019-01-30T14:10:51.610Z,0.33
2019-01-30T14:13:17.960Z,0.30
2019-01-30T14:15:44.668Z,0.47
2019-01-30T14:18:10.982Z,0.50
2019-01-30T14:20:37.277Z,0.30
2019-01-30T14:23:03.978Z,0.30
2019-01-30T14:25:30.677Z,0.30
2019-01-30T14:27:56.960Z,0.27
2019-01-30T14:30:25.559Z,0.30
2019-01-30T14:32:52.162Z,0.50
2019-01-30T14:35:18.768Z,0.27
2019-01-30T14:37:45.586Z,0.50
2019-01-30T14:40:15.261Z,0.40
2019-01-30T15:52:10.194Z,0.30
2019-01-30T15:54:37.229Z,0.27
2019-01-30T15:57:03.994Z,0.37
2019-01-30T15:59:30.765Z,0.47
2019-01-30T16:01:57.392Z,0.30
2019-01-30T16:04:24.195Z,0.50
2019-01-30T16:06:50.827Z,0.40
2019-01-30T16:09:17.563Z,0.50
2019-01-30T16:11:44.079Z,0.63
2019-01-30T16:14:10.723Z,0.50
2019-01-30T16:16:37.499Z,0.50
2019-01-30T16:19:04.377Z,0.53
2019-01-30T16:21:31.005Z,0.60
2019-01-30T16:23:57.527Z,0.80
2019-01-30T16:26:24.295Z,0.53
2019-01-30T16:28:52.762Z,0.40
2019-01-30T16:31:19.503Z,0.70
2019-01-30T16:33:46.174Z,0.83
2019-01-30T16:36:12.889Z,0.70
2019-01-30T16:38:39.185Z,0.67
2019-01-30T16:41:05.927Z,0.60
2019-01-30T16:43:32.635Z,0.90
2019-01-30T16:45:59.348Z,0.60
2019-01-30T16:48:26.013Z,0.70
2019-01-30T16:50:52.834Z,0.60
2019-01-30T16:53:19.767Z,0.63
2019-01-30T16:55:46.199Z,0.93
2019-01-30T16:58:13.338Z,0.70
2019-01-30T17:00:40.288Z,0.80
2019-01-30T17:03:07.718Z,0.90
2019-01-30T17:05:34.765Z,0.50
2019-01-30T17:08:01.793Z,0.67
2019-01-30T17:10:28.573Z,0.80
2019-01-30T17:12:55.334Z,0.60
2019-01-30T17:15:26.129Z,0.60
2019-01-30T17:17:53.914Z,0.63
2019-01-30T17:20:21.733Z,0.50
2019-01-30T17:22:48.893Z,0.50
2019-01-30T17:25:15.796Z,0.60
2019-01-30T17:27:42.569Z,0.50
2019-01-30T17:30:13.912Z,0.60
2019-01-30T17:32:40.693Z,0.50
2019-01-30T17:35:07.848Z,0.70
2019-01-30T17:37:34.654Z,0.73
2019-01-30T17:40:02.663Z,0.80
2019-01-30T17:42:29.814Z,0.90
2019-01-30T17:44:56.736Z,1.00
2019-01-30T17:47:23.665Z,0.80
2019-01-30T17:49:50.834Z,0.90
2019-01-30T17:52:17.797Z,0.67
2019-01-30T17:54:44.835Z,0.90
2019-01-30T17:57:11.849Z,1.23
2019-01-30T17:59:38.966Z,1.07
2019-01-30T18:02:07.813Z,1.30
2019-01-30T18:04:34.761Z,0.83
2019-01-30T18:07:01.789Z,1.10
2019-01-30T18:09:28.556Z,1.30
2019-01-30T18:11:55.808Z,0.90
2019-01-30T18:14:22.789Z,0.80
2019-01-30T18:16:51.361Z,1.00
2019-01-30T18:19:19.261Z,0.93
2019-01-30T18:21:47.830Z,0.83
2019-01-30T18:24:14.708Z,0.63
2019-01-30T18:26:41.862Z,0.80
2019-01-30T18:29:08.862Z,0.80
2019-01-30T18:31:35.874Z,0.80
2019-01-30T18:34:03.145Z,1.97
2019-01-30T18:36:40.367Z,0.67
2019-01-30T18:38:58.778Z,1.00
2019-01-30T18:41:25.713Z,0.90
2019-01-30T18:43:52.986Z,0.87
2019-01-30T18:46:20.171Z,0.70
2019-01-30T18:48:47.770Z,0.70
2019-01-30T18:51:15.145Z,0.70
2019-01-30T18:53:42.177Z,0.70
2019-01-30T18:56:09.727Z,0.70
2019-01-30T18:58:37.122Z,0.97
2019-01-30T19:01:06.824Z,0.90
2019-01-30T19:03:34.254Z,23.83
2019-01-30T19:06:03.328Z,26.53
2019-01-30T19:08:31.384Z,12.97
2019-01-30T19:11:00.251Z,13.40
2019-01-30T19:13:27.431Z,5.57
2019-01-30T19:15:54.494Z,6.63
2019-01-30T19:18:22.098Z,3.90
2019-01-30T19:20:49.427Z,4.50
2019-01-30T19:23:16.679Z,3.80
2019-01-30T19:25:43.866Z,3.87
2019-01-30T19:28:12.667Z,2.67
2019-01-30T19:30:40.042Z,2.77
2019-01-30T19:33:07.802Z,2.70
2019-01-30T19:35:35.465Z,2.40
2019-01-30T19:38:04.922Z,3.63
2019-01-30T19:40:32.315Z,2.93
2019-01-30T19:42:59.544Z,2.23
2019-01-30T19:45:30.185Z,1.67
2019-01-30T19:47:57.399Z,1.50
2019-01-30T19:50:29.329Z,1.20
2019-01-30T19:52:56.687Z,1.23
2019-01-30T19:55:24.270Z,1.00
2019-01-30T19:57:51.497Z,1.23
2019-01-30T20:00:22.796Z,1.10
2019-01-30T20:02:51.280Z,0.90
2019-01-30T20:05:18.531Z,1.00
2019-01-30T20:07:46.017Z,1.07
2019-01-30T20:10:17.181Z,1.30
2019-01-30T20:12:44.603Z,1.47
2019-01-30T20:15:11.770Z,1.43
2019-01-30T20:17:38.997Z,2.00
2019-01-30T20:20:13.329Z,1.10
2019-01-30T20:22:41.554Z,1.60
2019-01-30T20:25:12.037Z,1.10
2019-01-30T20:27:39.532Z,1.30
2019-01-30T20:30:08.270Z,1.00
2019-01-30T20:32:35.485Z,1.07
2019-01-30T20:35:04.722Z,1.20
2019-01-30T20:37:32.540Z,0.87
2019-01-30T20:39:59.972Z,0.83
2019-01-30T20:42:29.310Z,1.07
2019-01-30T20:44:56.698Z,1.00
2019-01-30T20:47:25.425Z,1.10
2019-01-30T20:49:53.300Z,1.57
2019-01-30T20:52:20.376Z,1.20
2019-01-30T20:54:47.822Z,1.40
2019-01-30T20:57:15.062Z,1.17
2019-01-30T20:59:42.086Z,1.20
2019-01-30T21:02:09.420Z,1.30
2019-01-30T21:04:39.176Z,1.20
2019-01-30T21:46:50.486Z,1.20
2019-01-30T21:49:17.490Z,1.10
2019-01-30T21:51:45.963Z,1.40
2019-01-30T21:54:14.597Z,1.33
2019-01-30T21:56:41.522Z,1.50
2019-01-30T21:59:10.320Z,1.20
2019-01-30T22:01:37.152Z,1.33
2019-01-30T22:04:05.632Z,1.40
2019-01-30T22:06:31.947Z,1.80
2019-01-30T22:08:58.826Z,1.77
2019-01-30T22:11:25.867Z,1.77
2019-01-30T22:13:52.950Z,1.90
2019-01-30T22:16:20.061Z,2.13
2019-01-30T22:18:46.718Z,1.60
2019-01-30T22:21:13.269Z,1.60
2019-01-30T22:23:39.774Z,1.37
2019-01-30T22:26:06.859Z,1.40
2019-01-30T22:28:36.372Z,1.27
2019-01-30T22:31:04.387Z,1.30
2019-01-30T22:33:31.334Z,1.60
2019-01-30T22:35:58.130Z,1.40
2019-01-30T22:38:24.818Z,1.80
2019-01-30T22:40:51.126Z,1.40
2019-01-30T22:43:17.806Z,1.60
2019-01-30T22:45:44.481Z,1.60
2019-01-30T22:48:12.239Z,1.30
2019-01-30T22:50:38.898Z,1.57
2019-01-30T22:53:06.698Z,1.10
2019-01-30T22:55:33.739Z,1.20
2019-01-30T22:58:03.333Z,1.20
2019-01-30T23:00:50.328Z,1.40
2019-01-30T23:03:18.059Z,1.30
2019-01-30T23:05:49.714Z,1.60
2019-01-30T23:08:23.204Z,1.43
2019-01-30T23:10:52.245Z,1.07
2019-01-30T23:13:22.829Z,1.33
2019-01-30T23:15:51.426Z,1.40
2019-01-30T23:18:39.128Z,1.30
2019-01-30T23:21:08.696Z,1.20
2019-01-30T23:23:40.023Z,1.40
2019-01-30T23:26:10.393Z,1.30
2019-01-30T23:28:46.617Z,1.10
2019-01-30T23:31:19.489Z,1.10
2019-01-30T23:34:24.123Z,1.13
2019-01-30T23:37:24.258Z,1.20
2019-01-30T23:39:53.029Z,1.07
2019-01-30T23:42:26.085Z,1.00
2019-01-30T23:44:58.892Z,1.03
2019-01-30T23:47:41.678Z,1.17
2019-01-30T23:50:26.942Z,1.10
2019-01-30T23:53:13.696Z,1.50
2019-01-30T23:55:58.402Z,1.10
2019-01-30T23:58:49.428Z,1.20
